sensor_id;sensor_type;location;lat;lon;timestamp;temperature;humidity
37870;DHT22;62531;53.326;-1.368;2022-07-29T00:02:45;22.90;50.40
37870;DHT22;62531;53.326;-1.368;2022-07-29T00:06:46;22.90;50.40
37870;DHT22;62531;53.326;-1.368;2022-07-29T00:10:47;22.90;50.40
37870;DHT22;62531;53.326;-1.368;2022-07-29T00:14:49;22.90;50.40
37870;DHT22;62531;53.326;-1.368;2022-07-29T00:18:50;22.90;50.40
37870;DHT22;62531;53.326;-1.368;2022-07-29T00:22:51;22.80;50.40
37870;DHT22;62531;53.326;-1.368;2022-07-29T00:26:54;22.80;50.40
37870;DHT22;62531;53.326;-1.368;2022-07-29T00:30:56;22.80;50.40
37870;DHT22;62531;53.326;-1.368;2022-07-29T00:34:57;22.80;50.40
37870;DHT22;62531;53.326;-1.368;2022-07-29T00:39:17;22.80;50.40
37870;DHT22;62531;53.326;-1.368;2022-07-29T00:43:18;22.80;50.40
37870;DHT22;62531;53.326;-1.368;2022-07-29T00:47:19;22.70;50.30
37870;DHT22;62531;53.326;-1.368;2022-07-29T00:51:20;22.70;50.40
37870;DHT22;62531;53.326;-1.368;2022-07-29T00:55:22;22.70;50.40
37870;DHT22;62531;53.326;-1.368;2022-07-29T00:59:25;22.70;50.40
37870;DHT22;62531;53.326;-1.368;2022-07-29T01:03:28;22.70;50.40
37870;DHT22;62531;53.326;-1.368;2022-07-29T01:07:30;22.70;50.40
37870;DHT22;62531;53.326;-1.368;2022-07-29T01:11:32;22.60;50.30
37870;DHT22;62531;53.326;-1.368;2022-07-29T01:15:43;22.60;50.40
37870;DHT22;62531;53.326;-1.368;2022-07-29T01:24:30;22.60;50.40
37870;DHT22;62531;53.326;-1.368;2022-07-29T01:29:15;22.60;50.40
37870;DHT22;62531;53.326;-1.368;2022-07-29T01:33:17;22.60;50.40
37870;DHT22;62531;53.326;-1.368;2022-07-29T01:46:25;22.50;50.40
37870;DHT22;62531;53.326;-1.368;2022-07-29T01:50:49;22.50;50.50
37870;DHT22;62531;53.326;-1.368;2022-07-29T01:55:07;22.50;50.50
37870;DHT22;62531;53.326;-1.368;2022-07-29T01:59:10;22.50;50.50
37870;DHT22;62531;53.326;-1.368;2022-07-29T02:03:13;22.50;50.50
37870;DHT22;62531;53.326;-1.368;2022-07-29T02:07:19;22.50;50.60
37870;DHT22;62531;53.326;-1.368;2022-07-29T02:11:21;22.50;50.60
37870;DHT22;62531;53.326;-1.368;2022-07-29T02:15:24;22.40;50.50
37870;DHT22;62531;53.326;-1.368;2022-07-29T02:19:30;22.40;50.50
37870;DHT22;62531;53.326;-1.368;2022-07-29T02:23:34;22.40;50.50
37870;DHT22;62531;53.326;-1.368;2022-07-29T02:27:37;22.40;50.50
37870;DHT22;62531;53.326;-1.368;2022-07-29T02:31:39;22.40;50.50
37870;DHT22;62531;53.326;-1.368;2022-07-29T02:35:47;22.40;50.50
37870;DHT22;62531;53.326;-1.368;2022-07-29T02:39:52;22.40;50.50
37870;DHT22;62531;53.326;-1.368;2022-07-29T02:43:57;22.30;50.50
37870;DHT22;62531;53.326;-1.368;2022-07-29T02:48:06;22.40;50.60
37870;DHT22;62531;53.326;-1.368;2022-07-29T02:52:24;22.30;50.50
37870;DHT22;62531;53.326;-1.368;2022-07-29T02:56:28;22.30;50.60
37870;DHT22;62531;53.326;-1.368;2022-07-29T03:00:37;22.30;50.50
37870;DHT22;62531;53.326;-1.368;2022-07-29T03:04:41;22.30;50.50
37870;DHT22;62531;53.326;-1.368;2022-07-29T03:08:44;22.30;50.50
37870;DHT22;62531;53.326;-1.368;2022-07-29T03:12:47;22.30;50.60
37870;DHT22;62531;53.326;-1.368;2022-07-29T03:16:49;22.30;50.60
37870;DHT22;62531;53.326;-1.368;2022-07-29T03:20:51;22.30;50.60
37870;DHT22;62531;53.326;-1.368;2022-07-29T03:24:53;22.20;50.60
37870;DHT22;62531;53.326;-1.368;2022-07-29T03:28:54;22.30;50.60
37870;DHT22;62531;53.326;-1.368;2022-07-29T03:32:55;22.20;50.50
37870;DHT22;62531;53.326;-1.368;2022-07-29T03:36:57;22.20;50.50
37870;DHT22;62531;53.326;-1.368;2022-07-29T03:41:01;22.20;50.50
37870;DHT22;62531;53.326;-1.368;2022-07-29T03:45:10;22.20;50.60
37870;DHT22;62531;53.326;-1.368;2022-07-29T03:49:12;22.20;50.60
37870;DHT22;62531;53.326;-1.368;2022-07-29T03:53:15;22.20;50.60
37870;DHT22;62531;53.326;-1.368;2022-07-29T03:57:19;22.10;50.50
37870;DHT22;62531;53.326;-1.368;2022-07-29T04:01:24;22.20;50.60
37870;DHT22;62531;53.326;-1.368;2022-07-29T04:05:27;22.20;50.60
37870;DHT22;62531;53.326;-1.368;2022-07-29T04:09:28;22.20;50.60
37870;DHT22;62531;53.326;-1.368;2022-07-29T04:13:30;22.20;50.60
37870;DHT22;62531;53.326;-1.368;2022-07-29T04:17:33;22.10;50.50
37870;DHT22;62531;53.326;-1.368;2022-07-29T04:21:39;22.10;50.50
37870;DHT22;62531;53.326;-1.368;2022-07-29T04:25:41;22.10;50.50
37870;DHT22;62531;53.326;-1.368;2022-07-29T04:29:42;22.10;50.50
37870;DHT22;62531;53.326;-1.368;2022-07-29T04:33:43;22.10;50.60
37870;DHT22;62531;53.326;-1.368;2022-07-29T04:37:44;22.10;50.60
37870;DHT22;62531;53.326;-1.368;2022-07-29T04:41:45;22.10;50.60
37870;DHT22;62531;53.326;-1.368;2022-07-29T04:45:46;22.00;50.50
37870;DHT22;62531;53.326;-1.368;2022-07-29T04:49:48;22.00;50.50
37870;DHT22;62531;53.326;-1.368;2022-07-29T04:53:49;22.00;50.50
37870;DHT22;62531;53.326;-1.368;2022-07-29T04:57:50;22.00;50.50
37870;DHT22;62531;53.326;-1.368;2022-07-29T05:01:51;22.00;50.50
37870;DHT22;62531;53.326;-1.368;2022-07-29T05:05:53;22.00;50.50
37870;DHT22;62531;53.326;-1.368;2022-07-29T05:09:54;22.00;50.60
37870;DHT22;62531;53.326;-1.368;2022-07-29T05:13:58;22.00;50.60
37870;DHT22;62531;53.326;-1.368;2022-07-29T05:18:00;22.00;50.50
37870;DHT22;62531;53.326;-1.368;2022-07-29T05:22:02;22.00;50.60
37870;DHT22;62531;53.326;-1.368;2022-07-29T05:26:03;22.00;50.50
37870;DHT22;62531;53.326;-1.368;2022-07-29T05:30:04;21.90;50.50
37870;DHT22;62531;53.326;-1.368;2022-07-29T05:34:07;22.00;50.60
37870;DHT22;62531;53.326;-1.368;2022-07-29T05:38:08;21.90;50.50
37870;DHT22;62531;53.326;-1.368;2022-07-29T05:42:10;21.90;50.50
37870;DHT22;62531;53.326;-1.368;2022-07-29T05:46:11;21.90;50.50
37870;DHT22;62531;53.326;-1.368;2022-07-29T05:50:12;21.90;50.60
37870;DHT22;62531;53.326;-1.368;2022-07-29T05:54:13;21.90;50.60
37870;DHT22;62531;53.326;-1.368;2022-07-29T05:58:15;21.90;50.60
37870;DHT22;62531;53.326;-1.368;2022-07-29T06:02:17;21.90;50.60
37870;DHT22;62531;53.326;-1.368;2022-07-29T06:06:18;21.90;50.60
37870;DHT22;62531;53.326;-1.368;2022-07-29T06:10:20;21.90;50.60
37870;DHT22;62531;53.326;-1.368;2022-07-29T06:14:21;21.90;50.70
37870;DHT22;62531;53.326;-1.368;2022-07-29T06:18:22;21.90;50.70
37870;DHT22;62531;53.326;-1.368;2022-07-29T06:22:24;21.90;50.70
37870;DHT22;62531;53.326;-1.368;2022-07-29T06:26:26;21.80;50.80
37870;DHT22;62531;53.326;-1.368;2022-07-29T06:30:27;21.80;50.70
37870;DHT22;62531;53.326;-1.368;2022-07-29T06:34:30;21.80;50.70
37870;DHT22;62531;53.326;-1.368;2022-07-29T06:38:32;21.80;50.70
37870;DHT22;62531;53.326;-1.368;2022-07-29T06:42:34;21.80;50.70
37870;DHT22;62531;53.326;-1.368;2022-07-29T06:46:35;21.80;50.70
37870;DHT22;62531;53.326;-1.368;2022-07-29T06:50:37;21.80;50.70
37870;DHT22;62531;53.326;-1.368;2022-07-29T06:54:39;21.90;50.70
37870;DHT22;62531;53.326;-1.368;2022-07-29T06:58:40;21.00;53.10
37870;DHT22;62531;53.326;-1.368;2022-07-29T07:02:42;20.20;55.10
37870;DHT22;62531;53.326;-1.368;2022-07-29T07:06:44;20.30;54.70
37870;DHT22;62531;53.326;-1.368;2022-07-29T07:10:45;20.40;54.70
37870;DHT22;62531;53.326;-1.368;2022-07-29T07:14:50;20.30;54.90
37870;DHT22;62531;53.326;-1.368;2022-07-29T07:18:51;20.30;54.90
37870;DHT22;62531;53.326;-1.368;2022-07-29T07:22:52;20.40;54.80
37870;DHT22;62531;53.326;-1.368;2022-07-29T07:26:53;20.20;55.50
37870;DHT22;62531;53.326;-1.368;2022-07-29T07:30:54;20.20;55.40
37870;DHT22;62531;53.326;-1.368;2022-07-29T07:34:55;20.00;55.90
37870;DHT22;62531;53.326;-1.368;2022-07-29T07:38:57;20.10;56.30
37870;DHT22;62531;53.326;-1.368;2022-07-29T07:42:58;20.10;55.60
37870;DHT22;62531;53.326;-1.368;2022-07-29T07:46:59;19.90;56.50
37870;DHT22;62531;53.326;-1.368;2022-07-29T07:51:01;19.90;56.60
37870;DHT22;62531;53.326;-1.368;2022-07-29T07:55:02;19.90;56.90
37870;DHT22;62531;53.326;-1.368;2022-07-29T07:59:03;19.70;57.30
37870;DHT22;62531;53.326;-1.368;2022-07-29T08:03:05;19.70;57.50
37870;DHT22;62531;53.326;-1.368;2022-07-29T08:07:07;19.60;58.10
37870;DHT22;62531;53.326;-1.368;2022-07-29T08:11:09;19.60;57.80
37870;DHT22;62531;53.326;-1.368;2022-07-29T08:15:10;19.50;58.60
37870;DHT22;62531;53.326;-1.368;2022-07-29T08:19:12;19.50;58.30
37870;DHT22;62531;53.326;-1.368;2022-07-29T08:23:14;19.70;58.20
37870;DHT22;62531;53.326;-1.368;2022-07-29T08:27:15;20.00;57.50
37870;DHT22;62531;53.326;-1.368;2022-07-29T08:31:17;20.20;57.00
37870;DHT22;62531;53.326;-1.368;2022-07-29T08:35:19;20.20;56.80
37870;DHT22;62531;53.326;-1.368;2022-07-29T08:39:21;20.30;56.70
37870;DHT22;62531;53.326;-1.368;2022-07-29T08:43:22;20.30;56.60
37870;DHT22;62531;53.326;-1.368;2022-07-29T08:47:24;20.20;57.00
37870;DHT22;62531;53.326;-1.368;2022-07-29T08:51:27;20.20;57.00
37870;DHT22;62531;53.326;-1.368;2022-07-29T08:55:29;20.30;56.70
37870;DHT22;62531;53.326;-1.368;2022-07-29T08:59:34;20.40;56.50
37870;DHT22;62531;53.326;-1.368;2022-07-29T09:03:37;20.50;56.30
37870;DHT22;62531;53.326;-1.368;2022-07-29T09:07:39;20.40;56.20
37870;DHT22;62531;53.326;-1.368;2022-07-29T09:11:44;20.40;56.70
37870;DHT22;62531;53.326;-1.368;2022-07-29T09:15:45;20.30;56.50
37870;DHT22;62531;53.326;-1.368;2022-07-29T09:19:46;20.50;56.30
37870;DHT22;62531;53.326;-1.368;2022-07-29T09:24:09;20.60;55.80
37870;DHT22;62531;53.326;-1.368;2022-07-29T09:28:15;20.70;55.90
37870;DHT22;62531;53.326;-1.368;2022-07-29T09:32:20;20.60;56.30
37870;DHT22;62531;53.326;-1.368;2022-07-29T09:36:21;20.70;55.80
37870;DHT22;62531;53.326;-1.368;2022-07-29T09:40:25;20.80;55.60
37870;DHT22;62531;53.326;-1.368;2022-07-29T09:44:27;20.80;55.60
37870;DHT22;62531;53.326;-1.368;2022-07-29T09:48:41;21.00;55.20
37870;DHT22;62531;53.326;-1.368;2022-07-29T09:52:50;20.90;55.40
37870;DHT22;62531;53.326;-1.368;2022-07-29T09:56:52;21.00;55.10
37870;DHT22;62531;53.326;-1.368;2022-07-29T10:00:55;21.20;54.80
37870;DHT22;62531;53.326;-1.368;2022-07-29T10:04:56;21.10;54.70
37870;DHT22;62531;53.326;-1.368;2022-07-29T10:09:08;21.20;54.30
37870;DHT22;62531;53.326;-1.368;2022-07-29T10:13:12;21.30;54.00
37870;DHT22;62531;53.326;-1.368;2022-07-29T10:17:13;21.40;53.90
37870;DHT22;62531;53.326;-1.368;2022-07-29T10:21:16;21.50;53.60
37870;DHT22;62531;53.326;-1.368;2022-07-29T10:25:19;21.40;53.70
37870;DHT22;62531;53.326;-1.368;2022-07-29T10:29:22;21.60;53.50
37870;DHT22;62531;53.326;-1.368;2022-07-29T10:42:29;21.70;52.90
37870;DHT22;62531;53.326;-1.368;2022-07-29T10:46:38;21.70;53.00
37870;DHT22;62531;53.326;-1.368;2022-07-29T10:51:00;21.70;52.90
37870;DHT22;62531;53.326;-1.368;2022-07-29T10:55:03;21.80;52.80
37870;DHT22;62531;53.326;-1.368;2022-07-29T11:03:46;22.00;52.40
37870;DHT22;62531;53.326;-1.368;2022-07-29T11:16:59;21.90;51.80
37870;DHT22;62531;53.326;-1.368;2022-07-29T11:21:01;21.90;51.40
37870;DHT22;62531;53.326;-1.368;2022-07-29T11:25:16;21.90;50.70
37870;DHT22;62531;53.326;-1.368;2022-07-29T11:29:20;21.90;51.20
37870;DHT22;62531;53.326;-1.368;2022-07-29T11:33:31;21.80;51.10
37870;DHT22;62531;53.326;-1.368;2022-07-29T11:37:33;21.70;51.70
37870;DHT22;62531;53.326;-1.368;2022-07-29T11:41:34;21.90;50.90
37870;DHT22;62531;53.326;-1.368;2022-07-29T11:45:47;21.80;51.00
37870;DHT22;62531;53.326;-1.368;2022-07-29T11:49:50;21.90;50.80
37870;DHT22;62531;53.326;-1.368;2022-07-29T11:53:52;21.90;50.50
37870;DHT22;62531;53.326;-1.368;2022-07-29T11:57:58;21.90;50.50
37870;DHT22;62531;53.326;-1.368;2022-07-29T12:02:02;21.80;50.60
37870;DHT22;62531;53.326;-1.368;2022-07-29T12:06:13;21.80;50.20
37870;DHT22;62531;53.326;-1.368;2022-07-29T12:10:14;21.80;50.20
37870;DHT22;62531;53.326;-1.368;2022-07-29T12:14:30;21.80;50.40
37870;DHT22;62531;53.326;-1.368;2022-07-29T12:18:31;21.70;50.70
37870;DHT22;62531;53.326;-1.368;2022-07-29T12:22:35;21.70;50.30
37870;DHT22;62531;53.326;-1.368;2022-07-29T12:27:07;21.70;50.10
37870;DHT22;62531;53.326;-1.368;2022-07-29T12:31:15;21.70;50.10
37870;DHT22;62531;53.326;-1.368;2022-07-29T12:35:18;21.70;49.60
37870;DHT22;62531;53.326;-1.368;2022-07-29T12:39:20;21.70;50.00
37870;DHT22;62531;53.326;-1.368;2022-07-29T12:43:23;21.70;50.70
37870;DHT22;62531;53.326;-1.368;2022-07-29T12:47:25;21.70;49.90
37870;DHT22;62531;53.326;-1.368;2022-07-29T12:51:37;21.60;49.90
37870;DHT22;62531;53.326;-1.368;2022-07-29T12:55:49;21.60;50.00
37870;DHT22;62531;53.326;-1.368;2022-07-29T13:00:08;21.60;49.60
37870;DHT22;62531;53.326;-1.368;2022-07-29T13:04:27;21.50;49.70
37870;DHT22;62531;53.326;-1.368;2022-07-29T13:08:29;21.50;49.50
37870;DHT22;62531;53.326;-1.368;2022-07-29T13:12:30;21.50;49.70
37870;DHT22;62531;53.326;-1.368;2022-07-29T13:16:31;21.50;49.30
37870;DHT22;62531;53.326;-1.368;2022-07-29T13:20:33;21.50;49.30
37870;DHT22;62531;53.326;-1.368;2022-07-29T13:24:49;21.50;49.20
37870;DHT22;62531;53.326;-1.368;2022-07-29T13:28:50;21.60;49.10
37870;DHT22;62531;53.326;-1.368;2022-07-29T13:32:52;21.60;49.50
37870;DHT22;62531;53.326;-1.368;2022-07-29T13:36:53;21.90;49.50
37870;DHT22;62531;53.326;-1.368;2022-07-29T13:40:54;22.10;49.20
37870;DHT22;62531;53.326;-1.368;2022-07-29T13:44:55;22.10;48.90
37870;DHT22;62531;53.326;-1.368;2022-07-29T13:48:57;22.10;49.00
37870;DHT22;62531;53.326;-1.368;2022-07-29T13:52:58;22.20;48.90
37870;DHT22;62531;53.326;-1.368;2022-07-29T13:56:59;22.20;48.80
37870;DHT22;62531;53.326;-1.368;2022-07-29T14:01:01;22.20;48.50
37870;DHT22;62531;53.326;-1.368;2022-07-29T14:05:02;22.20;48.20
37870;DHT22;62531;53.326;-1.368;2022-07-29T14:09:04;22.40;50.00
37870;DHT22;62531;53.326;-1.368;2022-07-29T14:13:09;22.40;50.10
37870;DHT22;62531;53.326;-1.368;2022-07-29T14:17:10;22.50;49.40
37870;DHT22;62531;53.326;-1.368;2022-07-29T14:21:12;22.60;49.00
37870;DHT22;62531;53.326;-1.368;2022-07-29T14:25:13;22.60;48.90
37870;DHT22;62531;53.326;-1.368;2022-07-29T14:29:15;22.60;48.50
37870;DHT22;62531;53.326;-1.368;2022-07-29T14:33:16;22.60;48.50
37870;DHT22;62531;53.326;-1.368;2022-07-29T14:37:17;22.60;48.40
37870;DHT22;62531;53.326;-1.368;2022-07-29T14:41:18;22.60;48.20
37870;DHT22;62531;53.326;-1.368;2022-07-29T14:45:20;22.60;48.20
37870;DHT22;62531;53.326;-1.368;2022-07-29T14:49:21;22.70;48.00
37870;DHT22;62531;53.326;-1.368;2022-07-29T14:53:22;22.70;48.00
37870;DHT22;62531;53.326;-1.368;2022-07-29T14:57:24;22.70;48.00
37870;DHT22;62531;53.326;-1.368;2022-07-29T15:01:26;22.70;47.80
37870;DHT22;62531;53.326;-1.368;2022-07-29T15:05:27;22.60;47.90
37870;DHT22;62531;53.326;-1.368;2022-07-29T15:09:28;22.70;47.90
37870;DHT22;62531;53.326;-1.368;2022-07-29T15:13:29;22.80;47.70
37870;DHT22;62531;53.326;-1.368;2022-07-29T15:17:31;22.80;47.70
37870;DHT22;62531;53.326;-1.368;2022-07-29T15:21:32;22.80;47.70
37870;DHT22;62531;53.326;-1.368;2022-07-29T15:25:33;22.80;47.80
37870;DHT22;62531;53.326;-1.368;2022-07-29T15:29:37;22.80;47.60
37870;DHT22;62531;53.326;-1.368;2022-07-29T15:33:39;22.80;47.50
37870;DHT22;62531;53.326;-1.368;2022-07-29T15:37:40;22.80;47.70
37870;DHT22;62531;53.326;-1.368;2022-07-29T15:41:42;22.90;47.40
37870;DHT22;62531;53.326;-1.368;2022-07-29T15:45:43;22.90;47.10
37870;DHT22;62531;53.326;-1.368;2022-07-29T15:50:04;22.90;47.20
37870;DHT22;62531;53.326;-1.368;2022-07-29T15:54:07;22.80;47.80
37870;DHT22;62531;53.326;-1.368;2022-07-29T15:58:08;22.90;47.80
37870;DHT22;62531;53.326;-1.368;2022-07-29T16:02:09;22.90;47.50
37870;DHT22;62531;53.326;-1.368;2022-07-29T16:06:11;22.90;47.10
37870;DHT22;62531;53.326;-1.368;2022-07-29T16:10:12;23.00;47.20
37870;DHT22;62531;53.326;-1.368;2022-07-29T16:14:13;23.00;47.30
37870;DHT22;62531;53.326;-1.368;2022-07-29T16:18:14;23.00;47.20
37870;DHT22;62531;53.326;-1.368;2022-07-29T16:22:15;23.00;47.40
37870;DHT22;62531;53.326;-1.368;2022-07-29T16:26:17;23.00;47.30
37870;DHT22;62531;53.326;-1.368;2022-07-29T16:30:18;23.00;47.30
37870;DHT22;62531;53.326;-1.368;2022-07-29T16:34:20;23.10;46.90
37870;DHT22;62531;53.326;-1.368;2022-07-29T16:38:21;23.10;46.40
37870;DHT22;62531;53.326;-1.368;2022-07-29T16:42:22;23.10;46.60
37870;DHT22;62531;53.326;-1.368;2022-07-29T16:46:23;23.10;46.30
37870;DHT22;62531;53.326;-1.368;2022-07-29T16:50:25;23.10;46.20
37870;DHT22;62531;53.326;-1.368;2022-07-29T16:54:27;23.10;46.30
37870;DHT22;62531;53.326;-1.368;2022-07-29T16:58:28;23.10;46.90
37870;DHT22;62531;53.326;-1.368;2022-07-29T17:02:30;23.20;47.20
37870;DHT22;62531;53.326;-1.368;2022-07-29T17:06:32;23.20;47.30
37870;DHT22;62531;53.326;-1.368;2022-07-29T17:10:34;23.30;47.50
37870;DHT22;62531;53.326;-1.368;2022-07-29T17:14:36;23.30;47.60
37870;DHT22;62531;53.326;-1.368;2022-07-29T17:18:37;23.30;47.70
37870;DHT22;62531;53.326;-1.368;2022-07-29T17:22:38;23.30;47.90
37870;DHT22;62531;53.326;-1.368;2022-07-29T17:26:40;23.30;48.10
37870;DHT22;62531;53.326;-1.368;2022-07-29T17:30:43;23.30;49.30
37870;DHT22;62531;53.326;-1.368;2022-07-29T17:34:44;23.30;49.80
37870;DHT22;62531;53.326;-1.368;2022-07-29T17:38:45;23.20;50.00
37870;DHT22;62531;53.326;-1.368;2022-07-29T17:42:46;23.20;50.30
37870;DHT22;62531;53.326;-1.368;2022-07-29T17:46:49;23.20;50.10
37870;DHT22;62531;53.326;-1.368;2022-07-29T17:50:50;23.10;50.30
37870;DHT22;62531;53.326;-1.368;2022-07-29T17:54:51;23.10;50.30
37870;DHT22;62531;53.326;-1.368;2022-07-29T17:58:52;23.00;49.80
37870;DHT22;62531;53.326;-1.368;2022-07-29T18:02:54;23.00;49.70
37870;DHT22;62531;53.326;-1.368;2022-07-29T18:06:55;23.00;49.80
37870;DHT22;62531;53.326;-1.368;2022-07-29T18:10:57;23.00;49.80
37870;DHT22;62531;53.326;-1.368;2022-07-29T18:14:58;22.90;49.70
37870;DHT22;62531;53.326;-1.368;2022-07-29T18:19:00;22.90;49.50
37870;DHT22;62531;53.326;-1.368;2022-07-29T18:23:01;22.90;49.50
37870;DHT22;62531;53.326;-1.368;2022-07-29T18:27:02;22.90;49.40
37870;DHT22;62531;53.326;-1.368;2022-07-29T18:31:03;22.90;49.40
37870;DHT22;62531;53.326;-1.368;2022-07-29T18:35:05;22.90;49.40
37870;DHT22;62531;53.326;-1.368;2022-07-29T18:39:06;22.90;49.40
37870;DHT22;62531;53.326;-1.368;2022-07-29T18:43:08;22.80;49.30
37870;DHT22;62531;53.326;-1.368;2022-07-29T18:47:09;22.80;49.40
37870;DHT22;62531;53.326;-1.368;2022-07-29T18:51:10;22.80;49.40
37870;DHT22;62531;53.326;-1.368;2022-07-29T18:55:12;22.80;49.70
37870;DHT22;62531;53.326;-1.368;2022-07-29T18:59:14;22.80;49.90
37870;DHT22;62531;53.326;-1.368;2022-07-29T19:03:21;22.80;50.10
37870;DHT22;62531;53.326;-1.368;2022-07-29T19:07:23;22.80;50.30
37870;DHT22;62531;53.326;-1.368;2022-07-29T19:11:26;22.80;50.40
37870;DHT22;62531;53.326;-1.368;2022-07-29T19:15:28;22.80;50.50
37870;DHT22;62531;53.326;-1.368;2022-07-29T19:19:29;22.80;50.50
37870;DHT22;62531;53.326;-1.368;2022-07-29T19:23:30;22.80;50.40
37870;DHT22;62531;53.326;-1.368;2022-07-29T19:27:31;22.80;50.20
37870;DHT22;62531;53.326;-1.368;2022-07-29T19:31:32;22.70;50.10
37870;DHT22;62531;53.326;-1.368;2022-07-29T19:35:34;22.80;50.10
37870;DHT22;62531;53.326;-1.368;2022-07-29T19:39:35;22.70;50.00
37870;DHT22;62531;53.326;-1.368;2022-07-29T19:43:37;22.70;50.00
37870;DHT22;62531;53.326;-1.368;2022-07-29T19:47:38;22.70;49.90
37870;DHT22;62531;53.326;-1.368;2022-07-29T19:51:40;22.70;49.80
37870;DHT22;62531;53.326;-1.368;2022-07-29T19:55:41;22.70;49.80
37870;DHT22;62531;53.326;-1.368;2022-07-29T19:59:42;22.70;49.70
37870;DHT22;62531;53.326;-1.368;2022-07-29T20:03:45;22.70;49.70
37870;DHT22;62531;53.326;-1.368;2022-07-29T20:07:46;22.60;49.60
37870;DHT22;62531;53.326;-1.368;2022-07-29T20:11:48;22.60;49.70
37870;DHT22;62531;53.326;-1.368;2022-07-29T20:15:49;22.60;49.70
37870;DHT22;62531;53.326;-1.368;2022-07-29T20:19:50;22.60;49.80
37870;DHT22;62531;53.326;-1.368;2022-07-29T20:23:52;22.60;49.90
37870;DHT22;62531;53.326;-1.368;2022-07-29T20:27:56;22.60;50.00
37870;DHT22;62531;53.326;-1.368;2022-07-29T20:31:57;22.60;50.00
37870;DHT22;62531;53.326;-1.368;2022-07-29T20:35:59;22.60;50.00
37870;DHT22;62531;53.326;-1.368;2022-07-29T20:40:00;22.60;50.00
37870;DHT22;62531;53.326;-1.368;2022-07-29T20:44:03;22.60;50.00
37870;DHT22;62531;53.326;-1.368;2022-07-29T20:48:05;22.60;50.00
37870;DHT22;62531;53.326;-1.368;2022-07-29T20:52:07;22.50;50.80
37870;DHT22;62531;53.326;-1.368;2022-07-29T20:56:08;22.40;51.00
37870;DHT22;62531;53.326;-1.368;2022-07-29T21:00:11;22.40;51.20
37870;DHT22;62531;53.326;-1.368;2022-07-29T21:04:12;22.30;51.40
37870;DHT22;62531;53.326;-1.368;2022-07-29T21:08:13;22.50;51.10
37870;DHT22;62531;53.326;-1.368;2022-07-29T21:12:14;22.60;50.80
37870;DHT22;62531;53.326;-1.368;2022-07-29T21:16:16;22.80;50.70
37870;DHT22;62531;53.326;-1.368;2022-07-29T21:20:19;22.90;50.60
37870;DHT22;62531;53.326;-1.368;2022-07-29T21:24:22;22.90;50.50
37870;DHT22;62531;53.326;-1.368;2022-07-29T21:28:23;23.00;50.50
37870;DHT22;62531;53.326;-1.368;2022-07-29T21:32:27;23.10;50.50
37870;DHT22;62531;53.326;-1.368;2022-07-29T21:36:29;23.10;50.50
37870;DHT22;62531;53.326;-1.368;2022-07-29T21:40:30;23.10;50.50
37870;DHT22;62531;53.326;-1.368;2022-07-29T21:44:31;23.20;50.50
37870;DHT22;62531;53.326;-1.368;2022-07-29T21:48:32;23.20;50.50
37870;DHT22;62531;53.326;-1.368;2022-07-29T21:52:33;23.30;50.60
37870;DHT22;62531;53.326;-1.368;2022-07-29T21:56:37;23.30;50.50
37870;DHT22;62531;53.326;-1.368;2022-07-29T22:00:40;23.40;50.50
37870;DHT22;62531;53.326;-1.368;2022-07-29T22:04:41;23.40;50.60
37870;DHT22;62531;53.326;-1.368;2022-07-29T22:08:43;23.40;50.50
37870;DHT22;62531;53.326;-1.368;2022-07-29T22:12:45;23.40;50.50
37870;DHT22;62531;53.326;-1.368;2022-07-29T22:16:47;23.40;50.40
37870;DHT22;62531;53.326;-1.368;2022-07-29T22:20:49;23.40;50.30
37870;DHT22;62531;53.326;-1.368;2022-07-29T22:24:50;23.40;50.20
37870;DHT22;62531;53.326;-1.368;2022-07-29T22:28:51;23.40;50.30
37870;DHT22;62531;53.326;-1.368;2022-07-29T22:32:52;23.30;50.20
37870;DHT22;62531;53.326;-1.368;2022-07-29T22:36:54;23.30;50.20
37870;DHT22;62531;53.326;-1.368;2022-07-29T22:40:55;23.30;50.20
37870;DHT22;62531;53.326;-1.368;2022-07-29T22:44:56;23.30;50.20
37870;DHT22;62531;53.326;-1.368;2022-07-29T22:48:58;23.30;50.20
37870;DHT22;62531;53.326;-1.368;2022-07-29T22:52:59;23.30;50.20
37870;DHT22;62531;53.326;-1.368;2022-07-29T22:57:00;23.20;50.20
37870;DHT22;62531;53.326;-1.368;2022-07-29T23:01:01;23.30;50.20
37870;DHT22;62531;53.326;-1.368;2022-07-29T23:05:06;23.20;50.20
37870;DHT22;62531;53.326;-1.368;2022-07-29T23:09:08;23.20;50.10
37870;DHT22;62531;53.326;-1.368;2022-07-29T23:13:09;23.20;50.10
37870;DHT22;62531;53.326;-1.368;2022-07-29T23:17:11;23.20;50.10
37870;DHT22;62531;53.326;-1.368;2022-07-29T23:21:12;23.20;50.20
37870;DHT22;62531;53.326;-1.368;2022-07-29T23:25:14;23.20;50.20
37870;DHT22;62531;53.326;-1.368;2022-07-29T23:29:15;23.20;50.20
37870;DHT22;62531;53.326;-1.368;2022-07-29T23:33:16;23.20;50.20
37870;DHT22;62531;53.326;-1.368;2022-07-29T23:37:17;23.20;50.20
37870;DHT22;62531;53.326;-1.368;2022-07-29T23:41:19;23.20;50.10
37870;DHT22;62531;53.326;-1.368;2022-07-29T23:45:21;23.10;50.10
37870;DHT22;62531;53.326;-1.368;2022-07-29T23:49:22;23.10;50.10
37870;DHT22;62531;53.326;-1.368;2022-07-29T23:53:23;23.10;50.10
37870;DHT22;62531;53.326;-1.368;2022-07-29T23:57:25;23.10;50.10
